KANW/ANW METAR and TAF weather

Enter ICAO airport designator
Station Type Date Time Source
KANW METAR 2019/12/06 03:55 UTC NOAA

KANW 060355Z AUTO 01017KT 10SM OVC012 M01/M02 A3027 RMK AO2 T10101025


Station Type Date Time Source
KANW Decoded METAR 2019/12/06 03:55 UTC NOAA

Ainsworth Municipal, NE, United States (KANW) 42-35N 100-00W
Dec 05, 2019 - 10:55 PM EST / 2019.12.06 0355 UTC
Wind: from the N (010 degrees) at 20 MPH (17 KT):0
Visibility: 10 mile(s):0
Sky conditions: overcast
Temperature: 30.2 F (-1.0 C)
Windchill: 17 F (-8 C):1
Dew Point: 27.5 F (-2.5 C)
Relative Humidity: 89%
Pressure (altimeter): 30.27 in. Hg (1025 hPa)
ob: KANW 060355Z AUTO 01017KT 10SM OVC012 M01/M02 A3027 RMK AO2 T10101025
cycle: 4

Station Type Date Time Source
KANW TAF UTC NOAA

Error!

Example: see airport list